createdAt,value
2022-08-08T00:02:30.052Z,83.59
2022-08-08T00:04:53.194Z,83.75
2022-08-08T00:07:29.796Z,83.92
2022-08-08T00:10:06.917Z,83.96
2022-08-08T00:12:48.588Z,84.09
2022-08-08T00:15:56.932Z,84.30
2022-08-08T00:18:23.409Z,84.22
2022-08-08T00:20:58.396Z,84.58
2022-08-08T00:23:43.024Z,84.54
2022-08-08T00:26:26.277Z,85.15
2022-08-08T00:29:08.089Z,85.44
2022-08-08T00:32:29.187Z,85.79
2022-08-08T00:35:04.498Z,86.12
2022-08-08T00:37:47.940Z,86.47
2022-08-08T00:41:21.930Z,86.89
2022-08-08T00:44:10.822Z,87.25
2022-08-08T00:47:00.514Z,87.47
2022-08-08T00:50:22.099Z,87.99
2022-08-08T00:52:58.033Z,88.23
2022-08-08T00:56:01.503Z,88.46
2022-08-08T00:59:07.725Z,88.35
2022-08-08T01:01:45.511Z,88.80
2022-08-08T01:04:57.544Z,88.86
2022-08-08T01:08:03.336Z,89.11
2022-08-08T01:11:08.364Z,89.08
2022-08-08T01:14:16.380Z,89.21
2022-08-08T01:17:25.333Z,89.12
2022-08-08T01:20:34.866Z,89.54
2022-08-08T01:24:06.159Z,89.35
2022-08-08T01:26:54.578Z,90.26
2022-08-08T01:29:35.243Z,90.97
2022-08-08T01:32:52.683Z,91.54
2022-08-08T01:35:52.850Z,91.98
2022-08-08T01:38:57.109Z,91.52
2022-08-08T01:41:34.025Z,91.71
2022-08-08T01:44:27.066Z,92.00
2022-08-08T01:48:01.741Z,91.40
2022-08-08T01:50:20.857Z,91.59
2022-08-08T01:54:33.575Z,92.04
2022-08-08T01:56:30.051Z,92.11
2022-08-08T01:58:57.831Z,92.53
2022-08-08T02:01:59.744Z,92.97
2022-08-08T02:04:35.691Z,92.90
2022-08-08T02:07:07.364Z,92.79
2022-08-08T02:10:11.489Z,93.29
2022-08-08T02:12:51.244Z,93.12
2022-08-08T02:15:30.469Z,93.01
2022-08-08T02:18:12.433Z,93.29
2022-08-08T02:21:13.412Z,93.85
2022-08-08T02:23:49.185Z,94.14
2022-08-08T02:26:29.584Z,93.93
2022-08-08T02:29:20.925Z,94.30
2022-08-08T02:32:15.797Z,94.41
2022-08-08T02:35:11.906Z,94.34
2022-08-08T02:38:09.163Z,94.48
2022-08-08T02:40:45.257Z,94.84
2022-08-08T02:44:38.439Z,95.36
2022-08-08T02:47:10.718Z,95.05
2022-08-08T02:50:17.613Z,95.40
2022-08-08T02:52:56.291Z,95.40
2022-08-08T02:55:57.855Z,95.50
2022-08-08T02:59:37.112Z,95.65
2022-08-08T03:03:00.846Z,95.33
2022-08-08T03:06:07.231Z,95.44
2022-08-08T03:09:05.011Z,95.67
2022-08-08T03:12:35.878Z,94.94
2022-08-08T03:16:01.151Z,95.12
2022-08-08T03:18:31.091Z,95.31
2022-08-08T03:21:01.043Z,95.56
2022-08-08T03:23:54.781Z,95.76
2022-08-08T03:26:42.270Z,95.58
2022-08-08T03:29:27.072Z,95.71
2022-08-08T03:32:23.467Z,95.56
2022-08-08T03:34:57.617Z,95.48
2022-08-08T03:38:53.134Z,95.91
2022-08-08T03:40:29.488Z,95.76
2022-08-08T03:42:58.617Z,95.71
2022-08-08T03:46:04.775Z,95.87
2022-08-08T03:49:10.078Z,95.68
2022-08-08T03:51:26.569Z,95.98
2022-08-08T03:54:08.450Z,95.92
2022-08-08T03:56:37.684Z,96.46
2022-08-08T03:59:05.524Z,96.80
2022-08-08T04:02:12.948Z,96.95
2022-08-08T04:04:30.948Z,97.69
2022-08-08T04:07:01.144Z,98.36
2022-08-08T04:09:58.689Z,98.71
2022-08-08T04:12:18.449Z,99.14
2022-08-08T04:14:50.699Z,98.74
2022-08-08T04:17:45.888Z,98.67
2022-08-08T04:20:08.311Z,98.73
2022-08-08T04:22:36.439Z,98.42
2022-08-08T04:25:05.013Z,98.39
2022-08-08T04:28:03.008Z,98.54
2022-08-08T04:30:23.082Z,97.83
2022-08-08T04:32:51.649Z,96.51
2022-08-08T04:35:22.336Z,97.56
2022-08-08T04:37:50.553Z,97.62
2022-08-08T04:40:19.478Z,97.24
2022-08-08T04:42:56.985Z,96.68
2022-08-08T04:45:25.951Z,95.85
2022-08-08T04:47:54.318Z,95.52
2022-08-08T04:50:23.799Z,94.68
2022-08-08T04:52:58.904Z,95.08
2022-08-08T04:55:47.217Z,96.00
2022-08-08T04:58:22.459Z,94.69
2022-08-08T05:00:51.621Z,93.62
2022-08-08T05:04:11.680Z,87.04
2022-08-08T05:06:13.007Z,86.27
2022-08-08T05:08:51.576Z,84.92
2022-08-08T05:11:23.826Z,84.87
2022-08-08T05:14:00.821Z,85.29
2022-08-08T05:16:53.442Z,85.84
2022-08-08T05:20:09.311Z,87.01
2022-08-08T05:22:06.323Z,86.46
2022-08-08T05:24:34.578Z,86.81
2022-08-08T05:27:05.546Z,87.31
2022-08-08T05:29:35.711Z,86.26
2022-08-08T05:32:06.428Z,84.76
2022-08-08T05:34:37.377Z,82.68
2022-08-08T05:37:16.015Z,83.24
2022-08-08T05:39:51.066Z,83.03
2022-08-08T05:42:25.803Z,83.40
2022-08-08T05:44:57.403Z,83.60
2022-08-08T05:47:41.512Z,83.29
2022-08-08T05:50:18.814Z,83.40
2022-08-08T05:52:48.125Z,83.37
2022-08-08T05:55:15.689Z,83.34
2022-08-08T05:58:04.293Z,83.02
2022-08-08T06:00:36.065Z,82.98
2022-08-08T06:03:24.701Z,83.17
2022-08-08T06:05:56.652Z,83.18
2022-08-08T06:08:34.876Z,83.26
2022-08-08T06:11:04.375Z,82.04
2022-08-08T06:13:35.801Z,81.60
2022-08-08T06:16:06.631Z,81.78
2022-08-08T06:18:36.309Z,82.50
2022-08-08T06:21:27.969Z,81.99
2022-08-08T06:24:05.157Z,78.57
2022-08-08T06:26:50.638Z,79.68
2022-08-08T06:30:00.337Z,79.58
2022-08-08T06:32:22.604Z,77.87
2022-08-08T06:35:11.724Z,79.49
2022-08-08T06:37:46.618Z,76.31
2022-08-08T06:40:19.185Z,75.23
2022-08-08T06:42:56.101Z,74.81
2022-08-08T06:45:24.505Z,72.01
2022-08-08T06:48:00.743Z,72.01
2022-08-08T06:50:33.394Z,72.73
2022-08-08T06:53:14.025Z,72.99
2022-08-08T06:55:46.968Z,72.05
2022-08-08T06:58:15.242Z,72.77
2022-08-08T07:00:49.703Z,71.51
2022-08-08T07:03:52.215Z,72.24
2022-08-08T07:06:21.401Z,73.71
2022-08-08T07:08:52.957Z,71.89
2022-08-08T07:11:22.605Z,72.56
2022-08-08T07:14:00.408Z,71.15
2022-08-08T07:16:50.893Z,71.81
2022-08-08T07:19:31.318Z,73.22
2022-08-08T07:22:12.009Z,71.23
2022-08-08T07:24:52.947Z,71.10
2022-08-08T07:27:27.627Z,71.89
2022-08-08T07:30:09.994Z,70.84
2022-08-08T07:32:42.565Z,71.11
2022-08-08T07:35:14.129Z,70.62
2022-08-08T07:38:04.618Z,68.79
2022-08-08T07:40:32.971Z,66.56
2022-08-08T07:43:04.100Z,67.44
2022-08-08T07:46:05.585Z,64.84
2022-08-08T07:48:24.065Z,66.10
2022-08-08T07:50:58.601Z,66.21
2022-08-08T07:54:01.404Z,66.73
2022-08-08T07:56:35.503Z,65.93
2022-08-08T07:59:10.900Z,64.35
2022-08-08T08:02:33.682Z,64.31
2022-08-08T08:04:39.864Z,64.46
2022-08-08T08:07:10.906Z,63.20
2022-08-08T08:09:42.077Z,63.57
2022-08-08T08:12:26.588Z,62.59
2022-08-08T08:15:04.433Z,62.53
2022-08-08T08:17:47.497Z,61.20
2022-08-08T08:20:19.274Z,61.54
2022-08-08T08:22:49.620Z,61.24
2022-08-08T08:25:19.386Z,61.75
2022-08-08T08:28:05.147Z,60.67
2022-08-08T08:30:38.048Z,62.25
2022-08-08T08:33:05.849Z,62.57
2022-08-08T08:36:20.241Z,61.41
2022-08-08T08:38:29.115Z,62.94
2022-08-08T08:40:59.950Z,63.78
2022-08-08T08:43:29.078Z,64.54
2022-08-08T08:45:58.584Z,65.63
2022-08-08T08:48:32.201Z,65.95
2022-08-08T08:51:03.290Z,66.08
2022-08-08T08:53:56.339Z,67.09
2022-08-08T08:56:26.377Z,67.94
2022-08-08T08:58:58.048Z,69.68
2022-08-08T09:01:30.721Z,70.96
2022-08-08T09:04:06.681Z,71.40
2022-08-08T09:06:40.459Z,71.34
2022-08-08T09:09:35.095Z,71.71
2022-08-08T09:12:10.382Z,71.21
2022-08-08T09:14:42.507Z,71.81
2022-08-08T09:17:17.425Z,71.68
2022-08-08T09:21:58.546Z,71.29
2022-08-08T09:22:35.244Z,72.82
2022-08-08T09:25:07.444Z,70.62
2022-08-08T09:27:55.677Z,68.34
2022-08-08T09:30:27.803Z,66.27
2022-08-08T09:33:12.614Z,67.29
2022-08-08T09:35:49.739Z,65.25
2022-08-08T09:38:31.849Z,62.69
2022-08-08T09:41:06.081Z,62.93
2022-08-08T09:44:06.560Z,61.48
2022-08-08T09:46:34.830Z,65.03
2022-08-08T09:49:18.190Z,64.82
2022-08-08T09:52:07.019Z,62.37
2022-08-08T09:54:44.042Z,61.39
2022-08-08T09:57:19.184Z,60.85
2022-08-08T10:00:14.828Z,61.57
2022-08-08T10:02:41.823Z,63.05
2022-08-08T10:05:25.053Z,62.34
2022-08-08T10:08:00.480Z,60.30
2022-08-08T10:10:32.333Z,61.45
2022-08-08T10:13:14.399Z,63.60
2022-08-08T10:16:00.574Z,61.88
2022-08-08T10:18:31.721Z,60.33
2022-08-08T10:23:57.907Z,59.32
2022-08-08T10:26:52.016Z,58.11
2022-08-08T10:29:28.220Z,56.61
2022-08-08T10:32:27.075Z,55.72
2022-08-08T10:35:01.431Z,58.37
2022-08-08T10:37:31.853Z,56.21
2022-08-08T10:40:12.609Z,57.79
2022-08-08T10:42:45.507Z,59.13
2022-08-08T10:45:15.909Z,59.44
2022-08-08T10:47:48.723Z,57.60
2022-08-08T10:50:23.879Z,56.89
2022-08-08T10:52:51.965Z,57.41
2022-08-08T10:55:39.359Z,56.17
2022-08-08T10:58:09.440Z,57.45
2022-08-08T11:00:53.052Z,56.46
2022-08-08T11:04:01.449Z,57.51
2022-08-08T11:06:31.319Z,57.61
2022-08-08T11:09:03.416Z,57.08
2022-08-08T11:12:06.092Z,56.43
2022-08-08T11:14:27.629Z,53.66
2022-08-08T11:16:57.516Z,52.79
2022-08-08T11:19:28.678Z,54.63
2022-08-08T11:21:59.913Z,53.74
2022-08-08T11:24:29.177Z,51.57
2022-08-08T11:27:10.694Z,50.31
2022-08-08T11:30:04.345Z,51.10
2022-08-08T11:32:40.729Z,48.86
2022-08-08T11:35:23.542Z,49.97
2022-08-08T11:38:36.330Z,49.22
2022-08-08T11:40:46.442Z,46.66
2022-08-08T11:43:18.691Z,47.73
2022-08-08T11:46:09.191Z,49.07
2022-08-08T11:48:41.842Z,46.92
2022-08-08T11:51:30.545Z,45.15
2022-08-08T11:54:02.395Z,47.71
2022-08-08T11:56:34.381Z,46.13
2022-08-08T11:59:09.673Z,44.96
2022-08-08T12:01:38.066Z,43.67
2022-08-08T12:04:10.001Z,45.24
2022-08-08T12:06:39.424Z,44.63
2022-08-08T12:09:17.267Z,42.98
2022-08-08T12:11:49.659Z,44.36
2022-08-08T12:14:23.910Z,43.69
2022-08-08T12:16:57.127Z,46.00
2022-08-08T12:19:37.694Z,44.84
2022-08-08T12:22:20.918Z,45.12
2022-08-08T12:24:51.289Z,44.96
2022-08-08T12:27:26.855Z,45.06
2022-08-08T12:29:57.232Z,45.28
2022-08-08T12:32:24.949Z,44.68
2022-08-08T12:35:04.719Z,45.74
2022-08-08T12:38:01.644Z,48.96
2022-08-08T12:40:44.436Z,52.96
2022-08-08T12:43:32.067Z,55.22
2022-08-08T12:46:03.464Z,56.67
2022-08-08T12:48:38.659Z,58.03
2022-08-08T12:51:19.667Z,59.18
2022-08-08T12:53:59.088Z,60.50
2022-08-08T12:56:33.932Z,59.58
2022-08-08T12:59:02.027Z,60.75
2022-08-08T13:01:37.839Z,59.48
2022-08-08T13:04:18.540Z,60.39
2022-08-08T13:07:01.084Z,61.45
2022-08-08T13:10:01.909Z,60.49
2022-08-08T13:12:30.111Z,59.55
2022-08-08T13:14:58.827Z,59.20
2022-08-08T13:18:07.680Z,59.37
2022-08-08T13:20:18.302Z,60.26
2022-08-08T13:22:47.703Z,60.62
2022-08-08T13:25:16.277Z,59.67
2022-08-08T13:27:44.788Z,59.72
2022-08-08T13:30:20.840Z,59.27
2022-08-08T13:32:56.611Z,59.05
2022-08-08T13:35:29.529Z,58.62
2022-08-08T13:38:08.626Z,58.04
2022-08-08T13:40:44.990Z,56.26
2022-08-08T13:43:16.035Z,55.91
2022-08-08T13:45:47.185Z,54.28
2022-08-08T13:48:16.982Z,51.69
2022-08-08T13:50:55.032Z,51.44
2022-08-08T13:53:34.221Z,51.44
2022-08-08T13:56:11.043Z,52.03
2022-08-08T13:58:56.183Z,52.22
2022-08-08T14:01:33.074Z,48.35
2022-08-08T14:04:22.366Z,49.04
2022-08-08T14:06:50.770Z,50.34
2022-08-08T14:09:29.896Z,48.96
2022-08-08T14:11:59.716Z,50.19
2022-08-08T14:14:41.909Z,50.43
2022-08-08T14:17:22.015Z,50.13
2022-08-08T14:19:57.430Z,50.87
2022-08-08T14:22:37.933Z,49.94
2022-08-08T14:25:15.427Z,49.75
2022-08-08T14:27:59.949Z,49.77
2022-08-08T14:30:35.324Z,53.19
2022-08-08T14:33:12.873Z,54.02
2022-08-08T14:35:43.120Z,53.65
2022-08-08T14:38:34.011Z,54.34
2022-08-08T14:41:11.458Z,53.50
2022-08-08T14:44:09.866Z,52.23
2022-08-08T14:46:34.211Z,52.19
2022-08-08T14:49:09.262Z,51.95
2022-08-08T14:51:53.261Z,51.27
2022-08-08T14:54:28.591Z,50.66
2022-08-08T14:56:58.778Z,51.06
2022-08-08T14:59:44.404Z,52.23
2022-08-08T15:02:25.254Z,53.50
2022-08-08T15:04:53.725Z,55.36
2022-08-08T15:07:24.520Z,53.84
2022-08-08T15:10:09.528Z,53.71
2022-08-08T15:12:40.145Z,54.84
2022-08-08T15:15:09.425Z,55.86
2022-08-08T15:17:37.730Z,55.08
2022-08-08T15:20:13.912Z,55.19
2022-08-08T15:22:44.689Z,54.13
2022-08-08T15:25:17.738Z,54.24
2022-08-08T15:28:32.382Z,55.25
2022-08-08T15:30:48.704Z,56.45
2022-08-08T15:33:35.083Z,56.34
2022-08-08T15:36:04.306Z,56.00
2022-08-08T15:38:31.914Z,56.48
2022-08-08T15:41:00.298Z,55.57
2022-08-08T15:43:35.152Z,56.70
2022-08-08T15:46:03.509Z,54.14
2022-08-08T15:48:31.131Z,55.71
2022-08-08T15:51:07.083Z,55.13
2022-08-08T15:53:49.592Z,54.32
2022-08-08T15:56:19.827Z,55.13
2022-08-08T15:58:49.522Z,54.72
2022-08-08T16:01:18.286Z,53.56
2022-08-08T16:03:51.583Z,55.61
2022-08-08T16:06:28.744Z,53.28
2022-08-08T16:13:00.191Z,54.25
2022-08-08T16:13:20.819Z,53.46
2022-08-08T16:14:38.231Z,53.14
2022-08-08T16:17:06.305Z,53.43
2022-08-08T16:19:59.682Z,54.96
2022-08-08T16:22:30.031Z,53.96
2022-08-08T16:24:58.276Z,55.00
2022-08-08T16:27:25.856Z,54.42
2022-08-08T16:30:12.983Z,55.27
2022-08-08T16:32:43.828Z,54.81
2022-08-08T16:35:18.857Z,55.90
2022-08-08T16:37:50.861Z,54.84
2022-08-08T16:40:19.879Z,54.84
2022-08-08T16:42:51.677Z,55.28
2022-08-08T16:46:37.767Z,58.03
2022-08-08T16:48:13.311Z,59.57
2022-08-08T16:50:41.311Z,58.95
2022-08-08T16:55:02.823Z,56.53
2022-08-08T16:56:00.493Z,57.75
2022-08-08T16:58:34.327Z,57.30
2022-08-08T17:01:05.791Z,57.43
2022-08-08T17:03:59.985Z,55.59
2022-08-08T17:06:36.209Z,52.59
2022-08-08T17:09:05.707Z,53.16
2022-08-08T17:11:39.251Z,54.03
2022-08-08T17:14:18.891Z,54.52
2022-08-08T17:16:57.551Z,54.18
2022-08-08T17:19:27.331Z,54.13
2022-08-08T17:21:55.046Z,53.65
2022-08-08T17:24:27.683Z,55.22
2022-08-08T17:26:57.871Z,52.93
2022-08-08T17:29:26.677Z,53.47
2022-08-08T17:31:57.451Z,55.00
2022-08-08T17:34:48.156Z,55.92
2022-08-08T17:37:13.828Z,54.76
2022-08-08T17:40:02.836Z,53.32
2022-08-08T17:42:29.250Z,53.70
2022-08-08T17:44:58.327Z,55.45
2022-08-08T17:47:37.610Z,55.49
2022-08-08T17:50:08.896Z,55.35
2022-08-08T17:52:38.069Z,54.17
2022-08-08T17:56:03.522Z,54.31
2022-08-08T17:57:55.406Z,54.81
2022-08-08T18:00:30.295Z,56.95
2022-08-08T18:03:08.030Z,56.50
2022-08-08T18:05:48.610Z,56.36
2022-08-08T18:08:41.333Z,57.27
2022-08-08T18:11:15.166Z,57.33
2022-08-08T18:13:44.408Z,56.15
2022-08-08T18:16:16.999Z,56.49
2022-08-08T18:18:54.656Z,56.55
2022-08-08T18:21:35.594Z,56.52
2022-08-08T18:24:19.192Z,59.42
2022-08-08T18:26:53.675Z,58.46
2022-08-08T18:29:29.613Z,57.17
2022-08-08T18:31:58.429Z,58.41
2022-08-08T18:34:28.134Z,56.86
2022-08-08T18:36:56.204Z,59.60
2022-08-08T18:39:27.855Z,57.90
2022-08-08T18:42:03.363Z,58.77
2022-08-08T18:44:32.838Z,60.71
2022-08-08T18:47:02.993Z,60.62
2022-08-08T18:49:57.842Z,61.77
2022-08-08T18:52:22.783Z,62.06
2022-08-08T18:55:00.700Z,61.08
2022-08-08T18:57:40.968Z,61.23
2022-08-08T19:00:16.619Z,62.39
2022-08-08T19:02:56.501Z,64.20
2022-08-08T19:05:32.005Z,63.47
2022-08-08T19:08:09.984Z,64.97
2022-08-08T19:10:41.196Z,64.53
2022-08-08T19:13:20.683Z,64.34
2022-08-08T19:15:51.903Z,64.35
2022-08-08T19:18:32.242Z,65.92
2022-08-08T19:21:29.477Z,66.77
2022-08-08T19:23:59.007Z,67.06
2022-08-08T19:26:30.804Z,67.79
2022-08-08T19:28:59.488Z,67.21
2022-08-08T19:31:31.031Z,68.45
2022-08-08T19:34:15.186Z,69.94
2022-08-08T19:36:48.972Z,70.46
2022-08-08T19:39:17.754Z,71.82
2022-08-08T19:41:47.250Z,71.94
2022-08-08T19:44:34.737Z,72.75
2022-08-08T19:47:04.242Z,74.41
2022-08-08T19:49:37.603Z,75.56
2022-08-08T19:52:10.503Z,74.08
2022-08-08T19:54:39.873Z,75.65
2022-08-08T19:57:09.109Z,76.47
2022-08-08T19:59:39.246Z,76.86
2022-08-08T20:02:07.369Z,77.96
2022-08-08T20:04:39.307Z,78.55
2022-08-08T20:08:27.201Z,78.91
2022-08-08T20:09:59.509Z,79.67
2022-08-08T20:12:32.290Z,79.83
2022-08-08T20:15:14.529Z,80.50
2022-08-08T20:17:46.171Z,79.95
2022-08-08T20:20:19.146Z,80.81
2022-08-08T20:22:54.033Z,81.53
2022-08-08T20:25:24.585Z,81.90
2022-08-08T20:27:54.564Z,82.59
2022-08-08T20:30:53.333Z,82.78
2022-08-08T20:33:20.245Z,83.78
2022-08-08T20:35:58.654Z,84.66
2022-08-08T20:38:32.083Z,85.36
2022-08-08T20:41:01.094Z,85.90
2022-08-08T20:43:43.341Z,86.69
2022-08-08T20:46:15.418Z,87.31
2022-08-08T20:48:42.981Z,87.96
2022-08-08T20:51:11.856Z,87.64
2022-08-08T20:53:58.352Z,89.27
2022-08-08T20:56:35.393Z,89.41
2022-08-08T20:59:05.677Z,89.71
2022-08-08T21:01:44.403Z,90.76
2022-08-08T21:04:23.207Z,90.56
2022-08-08T21:06:53.032Z,90.01
2022-08-08T21:09:22.826Z,89.89
2022-08-08T21:12:03.316Z,90.23
2022-08-08T21:14:34.822Z,89.85
2022-08-08T21:17:03.273Z,88.87
2022-08-08T21:19:45.896Z,88.77
2022-08-08T21:22:15.276Z,88.01
2022-08-08T21:24:53.478Z,87.30
2022-08-08T21:28:05.614Z,87.24
2022-08-08T21:30:18.197Z,87.00
2022-08-08T21:32:51.044Z,86.95
2022-08-08T21:36:17.190Z,87.07
2022-08-08T21:38:16.078Z,91.58
2022-08-08T21:40:54.826Z,91.82
2022-08-08T21:43:24.396Z,91.78
2022-08-08T21:48:01.533Z,92.18
2022-08-08T21:48:49.439Z,93.75
2022-08-08T21:52:09.781Z,95.08
2022-08-08T21:54:35.469Z,96.61
2022-08-08T21:56:59.469Z,98.03
2022-08-08T21:59:28.408Z,98.14
2022-08-08T22:02:15.839Z,98.83
2022-08-08T22:04:43.894Z,98.46
2022-08-08T22:07:11.902Z,99.15
2022-08-08T22:09:41.297Z,99.79
2022-08-08T22:12:16.621Z,100.00
2022-08-08T22:14:47.297Z,100.00
2022-08-08T22:17:18.387Z,100.00
2022-08-08T22:20:11.136Z,100.00
2022-08-08T22:22:38.037Z,100.00
2022-08-08T22:25:12.431Z,100.00
2022-08-08T22:28:02.830Z,100.00
2022-08-08T22:30:33.525Z,100.00
2022-08-08T22:33:01.900Z,100.00
2022-08-08T22:36:04.117Z,100.00
2022-08-08T22:38:17.931Z,100.00
2022-08-08T22:40:48.350Z,100.00
2022-08-08T22:43:18.911Z,100.00
2022-08-08T22:45:52.538Z,100.00
2022-08-08T22:48:21.459Z,100.00
2022-08-08T22:50:49.559Z,100.00
2022-08-08T22:54:29.533Z,100.00
2022-08-08T22:56:05.355Z,100.00
2022-08-08T22:58:35.194Z,100.00
2022-08-08T23:01:26.604Z,100.00
2022-08-08T23:03:54.278Z,100.00
2022-08-08T23:06:23.168Z,100.00
2022-08-08T23:08:55.165Z,100.00
2022-08-08T23:11:31.147Z,100.00
2022-08-08T23:14:13.295Z,100.00
2022-08-08T23:16:43.574Z,100.00
2022-08-08T23:19:12.270Z,100.00
2022-08-08T23:21:39.853Z,100.00
2022-08-08T23:24:07.740Z,100.00
2022-08-08T23:26:37.802Z,100.00
2022-08-08T23:29:10.826Z,100.00
2022-08-08T23:31:41.577Z,100.00
2022-08-08T23:34:16.929Z,100.00
2022-08-08T23:36:47.114Z,100.00
2022-08-08T23:39:15.631Z,100.00
2022-08-08T23:41:46.049Z,100.00
2022-08-08T23:44:15.313Z,100.00
2022-08-08T23:49:00.924Z,100.00
2022-08-08T23:49:32.841Z,100.00
2022-08-08T23:52:06.596Z,100.00
2022-08-08T23:54:41.271Z,100.00
2022-08-08T23:57:25.153Z,100.00
